sensor_id;sensor_type;location;lat;lon;timestamp;P1;durP1;ratioP1;P2;durP2;ratioP2
46158;SDS011;31888;44.512;26.104;2022-07-30T00:01:38;14.00;;;9.80;;
46158;SDS011;31888;44.512;26.104;2022-07-30T00:03:42;15.77;;;8.75;;
46158;SDS011;31888;44.512;26.104;2022-07-30T00:05:47;13.95;;;10.20;;
46158;SDS011;31888;44.512;26.104;2022-07-30T00:07:52;14.18;;;9.68;;
46158;SDS011;31888;44.512;26.104;2022-07-30T00:09:56;15.13;;;9.98;;
46158;SDS011;31888;44.512;26.104;2022-07-30T00:12:01;12.35;;;9.43;;
46158;SDS011;31888;44.512;26.104;2022-07-30T00:14:05;14.65;;;9.80;;
46158;SDS011;31888;44.512;26.104;2022-07-30T00:16:10;11.68;;;9.45;;
46158;SDS011;31888;44.512;26.104;2022-07-30T00:18:16;11.13;;;9.32;;
46158;SDS011;31888;44.512;26.104;2022-07-30T00:20:23;13.05;;;9.70;;
46158;SDS011;31888;44.512;26.104;2022-07-30T00:22:29;14.07;;;9.45;;
46158;SDS011;31888;44.512;26.104;2022-07-30T00:24:33;11.93;;;10.10;;
46158;SDS011;31888;44.512;26.104;2022-07-30T00:26:39;14.13;;;9.85;;
46158;SDS011;31888;44.512;26.104;2022-07-30T00:28:43;11.73;;;9.15;;
46158;SDS011;31888;44.512;26.104;2022-07-30T00:30:48;14.40;;;9.18;;
46158;SDS011;31888;44.512;26.104;2022-07-30T00:32:57;13.82;;;9.45;;
46158;SDS011;31888;44.512;26.104;2022-07-30T00:35:03;13.48;;;9.05;;
46158;SDS011;31888;44.512;26.104;2022-07-30T00:37:08;11.60;;;9.45;;
46158;SDS011;31888;44.512;26.104;2022-07-30T00:39:13;12.88;;;9.20;;
46158;SDS011;31888;44.512;26.104;2022-07-30T00:41:18;13.15;;;9.30;;
46158;SDS011;31888;44.512;26.104;2022-07-30T00:43:22;12.48;;;9.63;;
46158;SDS011;31888;44.512;26.104;2022-07-30T00:45:27;11.68;;;9.27;;
46158;SDS011;31888;44.512;26.104;2022-07-30T00:47:31;11.38;;;9.10;;
46158;SDS011;31888;44.512;26.104;2022-07-30T00:49:36;9.82;;;8.52;;
46158;SDS011;31888;44.512;26.104;2022-07-30T00:51:47;11.15;;;9.30;;
46158;SDS011;31888;44.512;26.104;2022-07-30T00:53:52;12.90;;;8.90;;
46158;SDS011;31888;44.512;26.104;2022-07-30T00:55:57;11.85;;;8.65;;
46158;SDS011;31888;44.512;26.104;2022-07-30T00:58:01;12.15;;;9.55;;
46158;SDS011;31888;44.512;26.104;2022-07-30T01:00:07;9.90;;;8.73;;
46158;SDS011;31888;44.512;26.104;2022-07-30T01:02:14;11.18;;;8.68;;
46158;SDS011;31888;44.512;26.104;2022-07-30T01:04:18;11.80;;;8.80;;
46158;SDS011;31888;44.512;26.104;2022-07-30T01:06:23;10.95;;;9.48;;
46158;SDS011;31888;44.512;26.104;2022-07-30T01:08:29;12.45;;;8.52;;
46158;SDS011;31888;44.512;26.104;2022-07-30T01:10:34;12.93;;;9.32;;
46158;SDS011;31888;44.512;26.104;2022-07-30T01:12:39;10.50;;;8.90;;
46158;SDS011;31888;44.512;26.104;2022-07-30T01:14:45;10.65;;;8.68;;
46158;SDS011;31888;44.512;26.104;2022-07-30T01:16:49;12.18;;;9.43;;
46158;SDS011;31888;44.512;26.104;2022-07-30T01:18:54;11.20;;;9.23;;
46158;SDS011;31888;44.512;26.104;2022-07-30T01:21:19;11.80;;;9.25;;
46158;SDS011;31888;44.512;26.104;2022-07-30T01:23:35;10.60;;;9.48;;
46158;SDS011;31888;44.512;26.104;2022-07-30T01:25:49;14.50;;;9.88;;
46158;SDS011;31888;44.512;26.104;2022-07-30T01:27:58;13.48;;;9.68;;
46158;SDS011;31888;44.512;26.104;2022-07-30T01:30:06;11.35;;;8.98;;
46158;SDS011;31888;44.512;26.104;2022-07-30T01:32:11;12.43;;;9.25;;
46158;SDS011;31888;44.512;26.104;2022-07-30T01:34:17;11.18;;;8.88;;
46158;SDS011;31888;44.512;26.104;2022-07-30T01:36:23;11.50;;;8.82;;
46158;SDS011;31888;44.512;26.104;2022-07-30T01:38:29;13.93;;;8.63;;
46158;SDS011;31888;44.512;26.104;2022-07-30T01:40:36;10.32;;;8.65;;
46158;SDS011;31888;44.512;26.104;2022-07-30T01:42:43;10.73;;;8.73;;
46158;SDS011;31888;44.512;26.104;2022-07-30T01:44:51;15.43;;;8.80;;
46158;SDS011;31888;44.512;26.104;2022-07-30T01:46:57;12.60;;;9.00;;
46158;SDS011;31888;44.512;26.104;2022-07-30T01:49:03;15.68;;;8.73;;
46158;SDS011;31888;44.512;26.104;2022-07-30T01:51:10;12.70;;;8.77;;
46158;SDS011;31888;44.512;26.104;2022-07-30T01:55:34;11.77;;;8.68;;
46158;SDS011;31888;44.512;26.104;2022-07-30T01:57:44;11.88;;;8.57;;
46158;SDS011;31888;44.512;26.104;2022-07-30T01:59:50;10.13;;;8.57;;
46158;SDS011;31888;44.512;26.104;2022-07-30T02:01:58;12.90;;;8.38;;
46158;SDS011;31888;44.512;26.104;2022-07-30T02:04:03;12.98;;;8.20;;
46158;SDS011;31888;44.512;26.104;2022-07-30T02:06:11;9.80;;;8.80;;
46158;SDS011;31888;44.512;26.104;2022-07-30T02:08:22;11.85;;;9.25;;
46158;SDS011;31888;44.512;26.104;2022-07-30T02:10:32;11.57;;;9.23;;
46158;SDS011;31888;44.512;26.104;2022-07-30T02:12:51;12.20;;;8.13;;
46158;SDS011;31888;44.512;26.104;2022-07-30T02:15:09;11.60;;;7.85;;
46158;SDS011;31888;44.512;26.104;2022-07-30T02:19:31;10.55;;;8.82;;
46158;SDS011;31888;44.512;26.104;2022-07-30T02:21:44;11.15;;;8.25;;
46158;SDS011;31888;44.512;26.104;2022-07-30T02:23:53;10.57;;;8.40;;
46158;SDS011;31888;44.512;26.104;2022-07-30T02:25:59;10.02;;;8.43;;
46158;SDS011;31888;44.512;26.104;2022-07-30T02:28:07;11.43;;;8.57;;
46158;SDS011;31888;44.512;26.104;2022-07-30T02:30:16;10.50;;;8.70;;
46158;SDS011;31888;44.512;26.104;2022-07-30T02:32:22;12.55;;;8.95;;
46158;SDS011;31888;44.512;26.104;2022-07-30T02:34:31;11.57;;;8.43;;
46158;SDS011;31888;44.512;26.104;2022-07-30T02:36:38;11.30;;;8.80;;
46158;SDS011;31888;44.512;26.104;2022-07-30T02:38:45;12.45;;;9.88;;
46158;SDS011;31888;44.512;26.104;2022-07-30T02:40:54;13.77;;;9.18;;
46158;SDS011;31888;44.512;26.104;2022-07-30T02:43:00;11.50;;;8.85;;
46158;SDS011;31888;44.512;26.104;2022-07-30T02:45:06;11.23;;;8.88;;
46158;SDS011;31888;44.512;26.104;2022-07-30T02:47:13;12.80;;;8.73;;
46158;SDS011;31888;44.512;26.104;2022-07-30T02:50:02;11.90;;;9.43;;
46158;SDS011;31888;44.512;26.104;2022-07-30T02:52:32;11.90;;;8.80;;
46158;SDS011;31888;44.512;26.104;2022-07-30T02:54:38;10.50;;;8.73;;
46158;SDS011;31888;44.512;26.104;2022-07-30T02:56:44;12.38;;;9.13;;
46158;SDS011;31888;44.512;26.104;2022-07-30T02:58:53;12.23;;;9.10;;
46158;SDS011;31888;44.512;26.104;2022-07-30T03:01:08;10.73;;;8.77;;
46158;SDS011;31888;44.512;26.104;2022-07-30T03:03:14;14.25;;;9.55;;
46158;SDS011;31888;44.512;26.104;2022-07-30T03:05:20;10.23;;;8.65;;
46158;SDS011;31888;44.512;26.104;2022-07-30T03:07:28;12.13;;;9.18;;
46158;SDS011;31888;44.512;26.104;2022-07-30T03:09:33;12.68;;;9.23;;
46158;SDS011;31888;44.512;26.104;2022-07-30T03:11:54;13.43;;;9.20;;
46158;SDS011;31888;44.512;26.104;2022-07-30T03:13:59;12.05;;;8.95;;
46158;SDS011;31888;44.512;26.104;2022-07-30T03:16:05;12.02;;;8.95;;
46158;SDS011;31888;44.512;26.104;2022-07-30T03:18:13;11.98;;;7.45;;
46158;SDS011;31888;44.512;26.104;2022-07-30T03:20:21;13.23;;;7.95;;
46158;SDS011;31888;44.512;26.104;2022-07-30T03:22:30;12.95;;;7.50;;
46158;SDS011;31888;44.512;26.104;2022-07-30T03:24:37;12.00;;;8.95;;
46158;SDS011;31888;44.512;26.104;2022-07-30T03:26:45;10.02;;;7.18;;
46158;SDS011;31888;44.512;26.104;2022-07-30T03:28:51;15.05;;;8.48;;
46158;SDS011;31888;44.512;26.104;2022-07-30T03:30:56;11.18;;;8.68;;
46158;SDS011;31888;44.512;26.104;2022-07-30T03:33:03;10.23;;;7.97;;
46158;SDS011;31888;44.512;26.104;2022-07-30T03:35:09;11.38;;;8.38;;
46158;SDS011;31888;44.512;26.104;2022-07-30T03:39:23;11.77;;;8.70;;
46158;SDS011;31888;44.512;26.104;2022-07-30T03:41:29;10.95;;;8.23;;
46158;SDS011;31888;44.512;26.104;2022-07-30T03:43:36;13.52;;;8.48;;
46158;SDS011;31888;44.512;26.104;2022-07-30T03:45:43;11.07;;;7.40;;
46158;SDS011;31888;44.512;26.104;2022-07-30T03:47:51;9.70;;;7.95;;
46158;SDS011;31888;44.512;26.104;2022-07-30T03:50:00;11.40;;;8.35;;
46158;SDS011;31888;44.512;26.104;2022-07-30T03:52:07;9.18;;;8.07;;
46158;SDS011;31888;44.512;26.104;2022-07-30T03:54:13;18.90;;;8.65;;
46158;SDS011;31888;44.512;26.104;2022-07-30T03:56:38;9.85;;;8.50;;
46158;SDS011;31888;44.512;26.104;2022-07-30T03:58:52;10.68;;;8.60;;
46158;SDS011;31888;44.512;26.104;2022-07-30T04:00:57;14.85;;;9.40;;
46158;SDS011;31888;44.512;26.104;2022-07-30T04:03:02;10.15;;;8.02;;
46158;SDS011;31888;44.512;26.104;2022-07-30T04:05:25;10.93;;;8.90;;
46158;SDS011;31888;44.512;26.104;2022-07-30T04:07:45;11.07;;;7.50;;
46158;SDS011;31888;44.512;26.104;2022-07-30T04:09:54;12.25;;;8.88;;
46158;SDS011;31888;44.512;26.104;2022-07-30T04:12:21;12.70;;;8.70;;
46158;SDS011;31888;44.512;26.104;2022-07-30T04:14:32;14.55;;;7.80;;
46158;SDS011;31888;44.512;26.104;2022-07-30T04:16:45;11.57;;;9.45;;
46158;SDS011;31888;44.512;26.104;2022-07-30T04:18:57;10.55;;;8.23;;
46158;SDS011;31888;44.512;26.104;2022-07-30T04:21:06;11.05;;;8.88;;
46158;SDS011;31888;44.512;26.104;2022-07-30T04:23:19;9.57;;;7.60;;
46158;SDS011;31888;44.512;26.104;2022-07-30T04:25:25;16.80;;;9.20;;
46158;SDS011;31888;44.512;26.104;2022-07-30T04:27:30;11.77;;;8.65;;
46158;SDS011;31888;44.512;26.104;2022-07-30T04:29:36;12.18;;;8.57;;
46158;SDS011;31888;44.512;26.104;2022-07-30T04:31:41;15.05;;;9.23;;
46158;SDS011;31888;44.512;26.104;2022-07-30T04:34:12;12.80;;;7.80;;
46158;SDS011;31888;44.512;26.104;2022-07-30T04:36:19;11.73;;;8.90;;
46158;SDS011;31888;44.512;26.104;2022-07-30T04:38:23;11.73;;;8.55;;
46158;SDS011;31888;44.512;26.104;2022-07-30T04:40:29;17.63;;;8.85;;
46158;SDS011;31888;44.512;26.104;2022-07-30T04:42:34;13.55;;;8.68;;
46158;SDS011;31888;44.512;26.104;2022-07-30T04:44:41;16.40;;;9.07;;
46158;SDS011;31888;44.512;26.104;2022-07-30T04:47:06;14.95;;;8.52;;
46158;SDS011;31888;44.512;26.104;2022-07-30T04:49:21;12.48;;;8.65;;
46158;SDS011;31888;44.512;26.104;2022-07-30T04:51:31;14.93;;;8.80;;
46158;SDS011;31888;44.512;26.104;2022-07-30T04:53:37;12.07;;;8.73;;
46158;SDS011;31888;44.512;26.104;2022-07-30T04:55:46;12.63;;;8.73;;
46158;SDS011;31888;44.512;26.104;2022-07-30T04:57:52;11.18;;;8.20;;
46158;SDS011;31888;44.512;26.104;2022-07-30T04:59:57;12.95;;;9.07;;
46158;SDS011;31888;44.512;26.104;2022-07-30T05:02:05;13.25;;;8.30;;
46158;SDS011;31888;44.512;26.104;2022-07-30T05:04:11;14.80;;;8.98;;
46158;SDS011;31888;44.512;26.104;2022-07-30T05:06:19;10.50;;;8.70;;
46158;SDS011;31888;44.512;26.104;2022-07-30T05:08:25;11.88;;;9.25;;
46158;SDS011;31888;44.512;26.104;2022-07-30T05:10:34;13.02;;;9.27;;
46158;SDS011;31888;44.512;26.104;2022-07-30T05:12:41;14.55;;;8.95;;
46158;SDS011;31888;44.512;26.104;2022-07-30T05:14:45;12.18;;;8.50;;
46158;SDS011;31888;44.512;26.104;2022-07-30T05:16:53;16.08;;;9.63;;
46158;SDS011;31888;44.512;26.104;2022-07-30T05:18:59;14.73;;;9.07;;
46158;SDS011;31888;44.512;26.104;2022-07-30T05:21:10;15.52;;;9.75;;
46158;SDS011;31888;44.512;26.104;2022-07-30T05:23:21;16.80;;;10.10;;
46158;SDS011;31888;44.512;26.104;2022-07-30T05:25:47;14.10;;;9.52;;
46158;SDS011;31888;44.512;26.104;2022-07-30T05:28:02;11.70;;;9.18;;
46158;SDS011;31888;44.512;26.104;2022-07-30T05:30:07;16.90;;;9.68;;
46158;SDS011;31888;44.512;26.104;2022-07-30T05:32:18;20.17;;;9.23;;
46158;SDS011;31888;44.512;26.104;2022-07-30T05:34:26;10.68;;;8.73;;
46158;SDS011;31888;44.512;26.104;2022-07-30T05:36:31;15.07;;;9.48;;
46158;SDS011;31888;44.512;26.104;2022-07-30T05:38:36;11.20;;;8.98;;
46158;SDS011;31888;44.512;26.104;2022-07-30T05:41:02;13.18;;;8.57;;
46158;SDS011;31888;44.512;26.104;2022-07-30T05:43:55;17.17;;;8.93;;
46158;SDS011;31888;44.512;26.104;2022-07-30T05:46:00;12.82;;;8.75;;
46158;SDS011;31888;44.512;26.104;2022-07-30T05:48:05;17.05;;;9.38;;
46158;SDS011;31888;44.512;26.104;2022-07-30T05:50:10;23.27;;;9.15;;
46158;SDS011;31888;44.512;26.104;2022-07-30T05:52:15;15.20;;;9.30;;
46158;SDS011;31888;44.512;26.104;2022-07-30T05:54:20;15.60;;;9.23;;
46158;SDS011;31888;44.512;26.104;2022-07-30T05:56:46;17.50;;;9.07;;
46158;SDS011;31888;44.512;26.104;2022-07-30T05:59:05;17.33;;;8.93;;
46158;SDS011;31888;44.512;26.104;2022-07-30T06:03:50;16.25;;;9.00;;
46158;SDS011;31888;44.512;26.104;2022-07-30T06:06:13;13.27;;;8.60;;
46158;SDS011;31888;44.512;26.104;2022-07-30T06:08:24;14.45;;;9.13;;
46158;SDS011;31888;44.512;26.104;2022-07-30T06:10:30;14.60;;;8.93;;
46158;SDS011;31888;44.512;26.104;2022-07-30T06:12:36;15.52;;;8.85;;
46158;SDS011;31888;44.512;26.104;2022-07-30T06:14:41;15.65;;;8.68;;
46158;SDS011;31888;44.512;26.104;2022-07-30T06:16:51;24.67;;;9.02;;
46158;SDS011;31888;44.512;26.104;2022-07-30T06:18:58;12.75;;;8.55;;
46158;SDS011;31888;44.512;26.104;2022-07-30T06:21:13;13.20;;;8.95;;
46158;SDS011;31888;44.512;26.104;2022-07-30T06:23:29;12.45;;;8.40;;
46158;SDS011;31888;44.512;26.104;2022-07-30T06:26:12;11.90;;;7.90;;
46158;SDS011;31888;44.512;26.104;2022-07-30T06:28:18;12.32;;;9.02;;
46158;SDS011;31888;44.512;26.104;2022-07-30T06:30:45;11.80;;;9.00;;
46158;SDS011;31888;44.512;26.104;2022-07-30T06:32:50;13.18;;;8.85;;
46158;SDS011;31888;44.512;26.104;2022-07-30T06:34:56;13.00;;;8.18;;
46158;SDS011;31888;44.512;26.104;2022-07-30T06:37:06;11.13;;;8.60;;
46158;SDS011;31888;44.512;26.104;2022-07-30T06:39:11;17.10;;;8.65;;
46158;SDS011;31888;44.512;26.104;2022-07-30T06:41:53;13.02;;;7.57;;
46158;SDS011;31888;44.512;26.104;2022-07-30T06:44:03;12.57;;;8.57;;
46158;SDS011;31888;44.512;26.104;2022-07-30T06:46:40;13.63;;;9.48;;
46158;SDS011;31888;44.512;26.104;2022-07-30T06:48:45;9.70;;;7.85;;
46158;SDS011;31888;44.512;26.104;2022-07-30T06:50:50;12.35;;;8.20;;
46158;SDS011;31888;44.512;26.104;2022-07-30T06:53:01;12.60;;;7.65;;
46158;SDS011;31888;44.512;26.104;2022-07-30T06:55:26;11.65;;;8.45;;
46158;SDS011;31888;44.512;26.104;2022-07-30T06:57:35;11.90;;;9.05;;
46158;SDS011;31888;44.512;26.104;2022-07-30T07:00:06;12.60;;;8.43;;
46158;SDS011;31888;44.512;26.104;2022-07-30T07:02:18;12.48;;;7.35;;
46158;SDS011;31888;44.512;26.104;2022-07-30T07:04:54;13.32;;;8.52;;
46158;SDS011;31888;44.512;26.104;2022-07-30T07:07:01;10.70;;;7.07;;
46158;SDS011;31888;44.512;26.104;2022-07-30T07:09:16;11.68;;;8.18;;
46158;SDS011;31888;44.512;26.104;2022-07-30T07:11:38;10.15;;;7.70;;
46158;SDS011;31888;44.512;26.104;2022-07-30T07:13:46;9.63;;;7.40;;
46158;SDS011;31888;44.512;26.104;2022-07-30T07:16:01;13.02;;;7.97;;
46158;SDS011;31888;44.512;26.104;2022-07-30T07:18:07;9.55;;;8.00;;
46158;SDS011;31888;44.512;26.104;2022-07-30T07:20:13;12.00;;;8.20;;
46158;SDS011;31888;44.512;26.104;2022-07-30T07:22:23;14.25;;;8.55;;
46158;SDS011;31888;44.512;26.104;2022-07-30T07:24:28;16.10;;;7.40;;
46158;SDS011;31888;44.512;26.104;2022-07-30T07:26:40;11.38;;;8.07;;
46158;SDS011;31888;44.512;26.104;2022-07-30T07:28:45;14.88;;;7.95;;
46158;SDS011;31888;44.512;26.104;2022-07-30T07:30:49;10.32;;;7.57;;
46158;SDS011;31888;44.512;26.104;2022-07-30T07:32:56;11.43;;;7.70;;
46158;SDS011;31888;44.512;26.104;2022-07-30T07:35:00;11.90;;;7.75;;
46158;SDS011;31888;44.512;26.104;2022-07-30T07:37:05;12.20;;;7.88;;
46158;SDS011;31888;44.512;26.104;2022-07-30T07:39:09;12.60;;;7.75;;
46158;SDS011;31888;44.512;26.104;2022-07-30T07:41:18;11.32;;;7.72;;
46158;SDS011;31888;44.512;26.104;2022-07-30T07:43:22;9.45;;;6.90;;
46158;SDS011;31888;44.512;26.104;2022-07-30T07:45:30;10.63;;;7.88;;
46158;SDS011;31888;44.512;26.104;2022-07-30T07:47:43;10.60;;;7.32;;
46158;SDS011;31888;44.512;26.104;2022-07-30T07:50:16;10.05;;;6.90;;
46158;SDS011;31888;44.512;26.104;2022-07-30T07:52:22;10.23;;;6.97;;
46158;SDS011;31888;44.512;26.104;2022-07-30T07:54:27;8.30;;;7.40;;
46158;SDS011;31888;44.512;26.104;2022-07-30T07:56:31;11.18;;;7.53;;
46158;SDS011;31888;44.512;26.104;2022-07-30T07:58:37;12.88;;;7.53;;
46158;SDS011;31888;44.512;26.104;2022-07-30T08:00:44;10.80;;;8.00;;
46158;SDS011;31888;44.512;26.104;2022-07-30T08:02:49;8.98;;;7.60;;
46158;SDS011;31888;44.512;26.104;2022-07-30T08:04:55;9.80;;;7.30;;
46158;SDS011;31888;44.512;26.104;2022-07-30T08:07:32;11.65;;;6.40;;
46158;SDS011;31888;44.512;26.104;2022-07-30T08:09:44;9.90;;;6.78;;
46158;SDS011;31888;44.512;26.104;2022-07-30T08:11:58;9.30;;;7.13;;
46158;SDS011;31888;44.512;26.104;2022-07-30T08:14:41;15.13;;;7.35;;
46158;SDS011;31888;44.512;26.104;2022-07-30T08:17:05;13.50;;;6.90;;
46158;SDS011;31888;44.512;26.104;2022-07-30T08:19:33;10.55;;;6.93;;
46158;SDS011;31888;44.512;26.104;2022-07-30T08:21:46;10.43;;;7.45;;
46158;SDS011;31888;44.512;26.104;2022-07-30T08:23:54;16.23;;;7.65;;
46158;SDS011;31888;44.512;26.104;2022-07-30T08:25:58;10.27;;;7.15;;
46158;SDS011;31888;44.512;26.104;2022-07-30T08:28:04;7.82;;;6.80;;
46158;SDS011;31888;44.512;26.104;2022-07-30T08:30:29;10.95;;;6.85;;
46158;SDS011;31888;44.512;26.104;2022-07-30T08:32:34;13.70;;;7.03;;
46158;SDS011;31888;44.512;26.104;2022-07-30T08:34:39;8.07;;;6.78;;
46158;SDS011;31888;44.512;26.104;2022-07-30T08:36:44;13.45;;;7.22;;
46158;SDS011;31888;44.512;26.104;2022-07-30T08:38:49;9.50;;;6.55;;
46158;SDS011;31888;44.512;26.104;2022-07-30T08:40:56;12.32;;;6.55;;
46158;SDS011;31888;44.512;26.104;2022-07-30T08:43:02;10.75;;;6.53;;
46158;SDS011;31888;44.512;26.104;2022-07-30T08:45:08;8.88;;;6.60;;
46158;SDS011;31888;44.512;26.104;2022-07-30T08:47:16;8.10;;;6.60;;
46158;SDS011;31888;44.512;26.104;2022-07-30T08:49:38;13.82;;;6.90;;
46158;SDS011;31888;44.512;26.104;2022-07-30T08:51:44;10.43;;;6.32;;
46158;SDS011;31888;44.512;26.104;2022-07-30T08:54:02;11.02;;;6.55;;
46158;SDS011;31888;44.512;26.104;2022-07-30T08:56:09;13.70;;;6.82;;
46158;SDS011;31888;44.512;26.104;2022-07-30T08:58:17;10.68;;;7.00;;
46158;SDS011;31888;44.512;26.104;2022-07-30T09:00:30;10.20;;;6.53;;
46158;SDS011;31888;44.512;26.104;2022-07-30T09:02:34;10.15;;;6.45;;
46158;SDS011;31888;44.512;26.104;2022-07-30T09:04:39;9.15;;;6.38;;
46158;SDS011;31888;44.512;26.104;2022-07-30T09:06:44;7.07;;;6.00;;
46158;SDS011;31888;44.512;26.104;2022-07-30T09:08:49;14.77;;;6.85;;
46158;SDS011;31888;44.512;26.104;2022-07-30T09:10:53;11.65;;;6.20;;
46158;SDS011;31888;44.512;26.104;2022-07-30T09:12:59;9.30;;;6.35;;
46158;SDS011;31888;44.512;26.104;2022-07-30T09:15:05;12.07;;;6.95;;
46158;SDS011;31888;44.512;26.104;2022-07-30T09:17:12;6.75;;;6.07;;
46158;SDS011;31888;44.512;26.104;2022-07-30T09:19:18;9.35;;;6.95;;
46158;SDS011;31888;44.512;26.104;2022-07-30T09:21:27;11.07;;;5.90;;
46158;SDS011;31888;44.512;26.104;2022-07-30T09:23:56;9.50;;;5.60;;
46158;SDS011;31888;44.512;26.104;2022-07-30T09:26:18;9.32;;;5.85;;
46158;SDS011;31888;44.512;26.104;2022-07-30T09:28:42;10.48;;;6.20;;
46158;SDS011;31888;44.512;26.104;2022-07-30T09:30:50;11.98;;;5.65;;
46158;SDS011;31888;44.512;26.104;2022-07-30T09:33:16;6.10;;;5.40;;
46158;SDS011;31888;44.512;26.104;2022-07-30T09:35:55;8.52;;;5.78;;
46158;SDS011;31888;44.512;26.104;2022-07-30T09:38:18;10.00;;;6.43;;
46158;SDS011;31888;44.512;26.104;2022-07-30T09:40:43;9.98;;;6.00;;
46158;SDS011;31888;44.512;26.104;2022-07-30T09:43:11;12.05;;;6.40;;
46158;SDS011;31888;44.512;26.104;2022-07-30T09:45:18;9.52;;;6.22;;
46158;SDS011;31888;44.512;26.104;2022-07-30T09:47:29;7.70;;;5.75;;
46158;SDS011;31888;44.512;26.104;2022-07-30T09:49:35;11.88;;;6.35;;
46158;SDS011;31888;44.512;26.104;2022-07-30T09:51:39;9.60;;;5.85;;
46158;SDS011;31888;44.512;26.104;2022-07-30T09:54:09;10.88;;;5.88;;
46158;SDS011;31888;44.512;26.104;2022-07-30T09:56:24;6.90;;;5.72;;
46158;SDS011;31888;44.512;26.104;2022-07-30T09:58:39;8.70;;;6.30;;
46158;SDS011;31888;44.512;26.104;2022-07-30T10:00:50;9.65;;;5.53;;
46158;SDS011;31888;44.512;26.104;2022-07-30T10:03:25;6.88;;;5.57;;
46158;SDS011;31888;44.512;26.104;2022-07-30T10:05:55;9.18;;;6.03;;
46158;SDS011;31888;44.512;26.104;2022-07-30T10:08:01;11.18;;;5.75;;
46158;SDS011;31888;44.512;26.104;2022-07-30T10:10:19;7.72;;;5.80;;
46158;SDS011;31888;44.512;26.104;2022-07-30T10:12:28;10.37;;;6.73;;
46158;SDS011;31888;44.512;26.104;2022-07-30T10:14:35;9.60;;;6.20;;
46158;SDS011;31888;44.512;26.104;2022-07-30T10:16:45;10.05;;;6.30;;
46158;SDS011;31888;44.512;26.104;2022-07-30T10:18:52;8.40;;;6.15;;
46158;SDS011;31888;44.512;26.104;2022-07-30T10:21:25;8.68;;;6.00;;
46158;SDS011;31888;44.512;26.104;2022-07-30T10:23:56;8.65;;;5.80;;
46158;SDS011;31888;44.512;26.104;2022-07-30T10:26:19;7.90;;;5.75;;
46158;SDS011;31888;44.512;26.104;2022-07-30T10:28:43;12.57;;;6.43;;
46158;SDS011;31888;44.512;26.104;2022-07-30T10:30:49;6.78;;;6.05;;
46158;SDS011;31888;44.512;26.104;2022-07-30T10:32:56;7.85;;;5.85;;
46158;SDS011;31888;44.512;26.104;2022-07-30T10:35:03;8.20;;;6.22;;
46158;SDS011;31888;44.512;26.104;2022-07-30T10:37:08;9.20;;;6.03;;
46158;SDS011;31888;44.512;26.104;2022-07-30T10:39:15;10.93;;;6.22;;
46158;SDS011;31888;44.512;26.104;2022-07-30T10:41:31;13.20;;;6.25;;
46158;SDS011;31888;44.512;26.104;2022-07-30T10:44:05;13.48;;;6.90;;
46158;SDS011;31888;44.512;26.104;2022-07-30T10:46:21;10.10;;;6.18;;
46158;SDS011;31888;44.512;26.104;2022-07-30T10:48:36;9.70;;;6.30;;
46158;SDS011;31888;44.512;26.104;2022-07-30T10:50:50;8.35;;;6.13;;
46158;SDS011;31888;44.512;26.104;2022-07-30T10:52:57;13.27;;;6.05;;
46158;SDS011;31888;44.512;26.104;2022-07-30T10:55:03;10.48;;;6.63;;
46158;SDS011;31888;44.512;26.104;2022-07-30T10:57:17;6.43;;;5.45;;
46158;SDS011;31888;44.512;26.104;2022-07-30T10:59:27;8.88;;;6.10;;
46158;SDS011;31888;44.512;26.104;2022-07-30T11:04:17;9.10;;;5.82;;
46158;SDS011;31888;44.512;26.104;2022-07-30T11:06:27;9.77;;;6.40;;
46158;SDS011;31888;44.512;26.104;2022-07-30T11:08:33;11.77;;;6.28;;
46158;SDS011;31888;44.512;26.104;2022-07-30T11:10:44;8.30;;;5.90;;
46158;SDS011;31888;44.512;26.104;2022-07-30T11:12:52;9.63;;;5.90;;
46158;SDS011;31888;44.512;26.104;2022-07-30T11:14:58;6.72;;;6.13;;
46158;SDS011;31888;44.512;26.104;2022-07-30T11:17:20;9.25;;;5.93;;
46158;SDS011;31888;44.512;26.104;2022-07-30T11:19:26;10.40;;;6.30;;
46158;SDS011;31888;44.512;26.104;2022-07-30T11:24:41;6.93;;;6.28;;
46158;SDS011;31888;44.512;26.104;2022-07-30T11:26:47;8.50;;;5.78;;
46158;SDS011;31888;44.512;26.104;2022-07-30T11:28:53;9.18;;;6.70;;
46158;SDS011;31888;44.512;26.104;2022-07-30T11:30:58;8.60;;;5.72;;
46158;SDS011;31888;44.512;26.104;2022-07-30T11:33:20;7.75;;;6.20;;
46158;SDS011;31888;44.512;26.104;2022-07-30T11:35:35;9.98;;;6.28;;
46158;SDS011;31888;44.512;26.104;2022-07-30T11:38:02;8.60;;;6.25;;
46158;SDS011;31888;44.512;26.104;2022-07-30T11:40:09;12.75;;;7.03;;
46158;SDS011;31888;44.512;26.104;2022-07-30T11:42:22;6.70;;;5.88;;
46158;SDS011;31888;44.512;26.104;2022-07-30T11:44:29;7.75;;;5.50;;
46158;SDS011;31888;44.512;26.104;2022-07-30T11:46:33;11.27;;;5.88;;
46158;SDS011;31888;44.512;26.104;2022-07-30T11:48:39;9.25;;;5.95;;
46158;SDS011;31888;44.512;26.104;2022-07-30T11:50:47;8.32;;;6.53;;
46158;SDS011;31888;44.512;26.104;2022-07-30T11:52:52;7.55;;;5.78;;
46158;SDS011;31888;44.512;26.104;2022-07-30T11:54:57;9.27;;;6.25;;
46158;SDS011;31888;44.512;26.104;2022-07-30T11:57:04;10.70;;;5.63;;
46158;SDS011;31888;44.512;26.104;2022-07-30T11:59:08;10.60;;;6.25;;
46158;SDS011;31888;44.512;26.104;2022-07-30T12:01:14;6.57;;;5.82;;
46158;SDS011;31888;44.512;26.104;2022-07-30T12:03:20;7.88;;;6.43;;
46158;SDS011;31888;44.512;26.104;2022-07-30T12:05:31;8.57;;;6.07;;
46158;SDS011;31888;44.512;26.104;2022-07-30T12:07:37;7.95;;;6.22;;
46158;SDS011;31888;44.512;26.104;2022-07-30T12:09:42;7.97;;;6.00;;
46158;SDS011;31888;44.512;26.104;2022-07-30T12:11:48;8.18;;;5.50;;
46158;SDS011;31888;44.512;26.104;2022-07-30T12:13:54;9.55;;;6.07;;
46158;SDS011;31888;44.512;26.104;2022-07-30T12:16:02;11.02;;;5.97;;
46158;SDS011;31888;44.512;26.104;2022-07-30T12:18:21;7.00;;;5.82;;
46158;SDS011;31888;44.512;26.104;2022-07-30T12:20:28;10.73;;;6.25;;
46158;SDS011;31888;44.512;26.104;2022-07-30T12:22:33;9.75;;;6.28;;
46158;SDS011;31888;44.512;26.104;2022-07-30T12:24:39;8.82;;;6.10;;
46158;SDS011;31888;44.512;26.104;2022-07-30T12:26:44;9.35;;;5.93;;
46158;SDS011;31888;44.512;26.104;2022-07-30T12:28:49;6.72;;;5.68;;
46158;SDS011;31888;44.512;26.104;2022-07-30T12:30:55;7.80;;;5.90;;
46158;SDS011;31888;44.512;26.104;2022-07-30T12:33:00;8.35;;;5.22;;
46158;SDS011;31888;44.512;26.104;2022-07-30T12:35:05;7.25;;;6.00;;
46158;SDS011;31888;44.512;26.104;2022-07-30T12:37:10;6.05;;;5.50;;
46158;SDS011;31888;44.512;26.104;2022-07-30T12:39:18;9.98;;;6.20;;
46158;SDS011;31888;44.512;26.104;2022-07-30T12:43:45;9.07;;;6.22;;
46158;SDS011;31888;44.512;26.104;2022-07-30T12:45:56;11.55;;;6.18;;
46158;SDS011;31888;44.512;26.104;2022-07-30T12:48:01;6.47;;;5.80;;
46158;SDS011;31888;44.512;26.104;2022-07-30T12:50:14;9.30;;;5.85;;
46158;SDS011;31888;44.512;26.104;2022-07-30T12:52:20;6.97;;;5.40;;
46158;SDS011;31888;44.512;26.104;2022-07-30T12:54:31;12.10;;;5.75;;
46158;SDS011;31888;44.512;26.104;2022-07-30T12:56:36;7.50;;;5.68;;
46158;SDS011;31888;44.512;26.104;2022-07-30T12:58:42;8.80;;;6.05;;
46158;SDS011;31888;44.512;26.104;2022-07-30T13:00:47;9.82;;;6.03;;
46158;SDS011;31888;44.512;26.104;2022-07-30T13:02:54;10.70;;;6.10;;
46158;SDS011;31888;44.512;26.104;2022-07-30T13:04:59;8.95;;;6.15;;